sensor_id;sensor_type;location;lat;lon;timestamp;P1;durP1;ratioP1;P2;durP2;ratioP2
23001;SDS011;11667;51.706;4.856;2023-06-14T00:00:41;6.17;;;2.87;;
23001;SDS011;11667;51.706;4.856;2023-06-14T00:03:11;5.72;;;3.33;;
23001;SDS011;11667;51.706;4.856;2023-06-14T00:05:42;5.67;;;2.90;;
23001;SDS011;11667;51.706;4.856;2023-06-14T00:08:13;4.30;;;2.72;;
23001;SDS011;11667;51.706;4.856;2023-06-14T00:10:43;6.65;;;2.90;;
23001;SDS011;11667;51.706;4.856;2023-06-14T00:13:12;6.45;;;3.10;;
23001;SDS011;11667;51.706;4.856;2023-06-14T00:15:42;5.20;;;2.90;;
23001;SDS011;11667;51.706;4.856;2023-06-14T00:18:11;6.10;;;3.00;;
23001;SDS011;11667;51.706;4.856;2023-06-14T00:20:41;3.85;;;2.83;;
23001;SDS011;11667;51.706;4.856;2023-06-14T00:23:10;4.03;;;2.70;;
23001;SDS011;11667;51.706;4.856;2023-06-14T00:25:40;6.22;;;2.77;;
23001;SDS011;11667;51.706;4.856;2023-06-14T00:28:09;6.33;;;2.72;;
23001;SDS011;11667;51.706;4.856;2023-06-14T00:30:39;5.35;;;3.00;;
23001;SDS011;11667;51.706;4.856;2023-06-14T00:33:08;4.37;;;2.90;;
23001;SDS011;11667;51.706;4.856;2023-06-14T00:35:37;6.12;;;3.22;;
23001;SDS011;11667;51.706;4.856;2023-06-14T00:38:07;4.05;;;2.72;;
23001;SDS011;11667;51.706;4.856;2023-06-14T00:40:39;3.90;;;2.70;;
23001;SDS011;11667;51.706;4.856;2023-06-14T00:43:08;4.33;;;2.70;;
23001;SDS011;11667;51.706;4.856;2023-06-14T00:45:37;4.53;;;2.98;;
23001;SDS011;11667;51.706;4.856;2023-06-14T00:48:07;4.42;;;2.50;;
23001;SDS011;11667;51.706;4.856;2023-06-14T00:50:37;5.08;;;3.10;;
23001;SDS011;11667;51.706;4.856;2023-06-14T00:53:08;4.70;;;2.70;;
23001;SDS011;11667;51.706;4.856;2023-06-14T00:55:37;5.15;;;3.12;;
23001;SDS011;11667;51.706;4.856;2023-06-14T00:58:07;4.60;;;2.95;;
23001;SDS011;11667;51.706;4.856;2023-06-14T01:00:37;6.20;;;2.90;;
23001;SDS011;11667;51.706;4.856;2023-06-14T01:03:07;6.10;;;3.30;;
23001;SDS011;11667;51.706;4.856;2023-06-14T01:05:38;5.50;;;3.30;;
23001;SDS011;11667;51.706;4.856;2023-06-14T01:08:18;5.00;;;3.17;;
23001;SDS011;11667;51.706;4.856;2023-06-14T01:11:02;4.47;;;2.60;;
23001;SDS011;11667;51.706;4.856;2023-06-14T01:13:39;4.95;;;2.98;;
23001;SDS011;11667;51.706;4.856;2023-06-14T01:16:09;6.30;;;3.08;;
23001;SDS011;11667;51.706;4.856;2023-06-14T01:18:39;7.30;;;3.10;;
23001;SDS011;11667;51.706;4.856;2023-06-14T01:21:25;6.50;;;3.30;;
23001;SDS011;11667;51.706;4.856;2023-06-14T01:23:56;6.75;;;3.30;;
23001;SDS011;11667;51.706;4.856;2023-06-14T01:26:26;6.45;;;3.37;;
23001;SDS011;11667;51.706;4.856;2023-06-14T01:28:58;5.42;;;2.98;;
23001;SDS011;11667;51.706;4.856;2023-06-14T01:31:28;5.35;;;3.12;;
23001;SDS011;11667;51.706;4.856;2023-06-14T01:34:00;5.25;;;3.40;;
23001;SDS011;11667;51.706;4.856;2023-06-14T01:36:29;5.08;;;3.10;;
23001;SDS011;11667;51.706;4.856;2023-06-14T01:38:59;8.08;;;3.67;;
23001;SDS011;11667;51.706;4.856;2023-06-14T01:41:28;7.47;;;3.27;;
23001;SDS011;11667;51.706;4.856;2023-06-14T01:43:59;5.72;;;3.05;;
23001;SDS011;11667;51.706;4.856;2023-06-14T01:46:29;5.17;;;3.17;;
23001;SDS011;11667;51.706;4.856;2023-06-14T01:48:58;5.55;;;3.15;;
23001;SDS011;11667;51.706;4.856;2023-06-14T01:51:28;5.53;;;3.50;;
23001;SDS011;11667;51.706;4.856;2023-06-14T01:53:57;5.72;;;3.35;;
23001;SDS011;11667;51.706;4.856;2023-06-14T01:56:28;9.40;;;3.60;;
23001;SDS011;11667;51.706;4.856;2023-06-14T01:58:58;5.85;;;3.37;;
23001;SDS011;11667;51.706;4.856;2023-06-14T02:01:28;9.15;;;3.45;;
23001;SDS011;11667;51.706;4.856;2023-06-14T02:03:58;4.80;;;3.08;;
23001;SDS011;11667;51.706;4.856;2023-06-14T02:06:28;7.08;;;3.60;;
23001;SDS011;11667;51.706;4.856;2023-06-14T02:08:57;5.70;;;3.20;;
23001;SDS011;11667;51.706;4.856;2023-06-14T02:11:27;7.80;;;3.92;;
23001;SDS011;11667;51.706;4.856;2023-06-14T02:13:57;5.08;;;3.05;;
23001;SDS011;11667;51.706;4.856;2023-06-14T02:16:28;7.83;;;3.33;;
23001;SDS011;11667;51.706;4.856;2023-06-14T02:18:58;4.28;;;3.05;;
23001;SDS011;11667;51.706;4.856;2023-06-14T02:21:27;5.10;;;3.27;;
23001;SDS011;11667;51.706;4.856;2023-06-14T02:23:57;7.80;;;3.37;;
23001;SDS011;11667;51.706;4.856;2023-06-14T02:26:27;4.85;;;3.33;;
23001;SDS011;11667;51.706;4.856;2023-06-14T02:28:58;7.33;;;3.40;;
23001;SDS011;11667;51.706;4.856;2023-06-14T02:31:28;4.58;;;3.15;;
23001;SDS011;11667;51.706;4.856;2023-06-14T02:33:57;5.30;;;3.17;;
23001;SDS011;11667;51.706;4.856;2023-06-14T02:36:26;5.08;;;3.20;;
23001;SDS011;11667;51.706;4.856;2023-06-14T02:41:28;8.00;;;3.40;;
23001;SDS011;11667;51.706;4.856;2023-06-14T02:43:57;4.33;;;3.02;;
23001;SDS011;11667;51.706;4.856;2023-06-14T02:46:28;6.60;;;3.52;;
23001;SDS011;11667;51.706;4.856;2023-06-14T02:48:57;7.28;;;3.37;;
23001;SDS011;11667;51.706;4.856;2023-06-14T02:51:27;5.75;;;3.12;;
23001;SDS011;11667;51.706;4.856;2023-06-14T02:53:56;7.37;;;3.50;;
23001;SDS011;11667;51.706;4.856;2023-06-14T02:56:26;7.35;;;3.17;;
23001;SDS011;11667;51.706;4.856;2023-06-14T02:58:56;5.65;;;2.95;;
23001;SDS011;11667;51.706;4.856;2023-06-14T03:01:26;6.08;;;3.47;;
23001;SDS011;11667;51.706;4.856;2023-06-14T03:03:58;5.43;;;2.83;;
23001;SDS011;11667;51.706;4.856;2023-06-14T03:06:28;4.85;;;3.33;;
23001;SDS011;11667;51.706;4.856;2023-06-14T03:08:59;4.78;;;3.37;;
23001;SDS011;11667;51.706;4.856;2023-06-14T03:11:31;5.58;;;3.20;;
23001;SDS011;11667;51.706;4.856;2023-06-14T03:14:01;5.90;;;3.30;;
23001;SDS011;11667;51.706;4.856;2023-06-14T03:16:35;6.45;;;3.22;;
23001;SDS011;11667;51.706;4.856;2023-06-14T03:19:06;4.37;;;3.20;;
23001;SDS011;11667;51.706;4.856;2023-06-14T03:21:35;4.75;;;3.37;;
23001;SDS011;11667;51.706;4.856;2023-06-14T03:24:07;6.67;;;3.35;;
23001;SDS011;11667;51.706;4.856;2023-06-14T03:26:37;6.60;;;3.37;;
23001;SDS011;11667;51.706;4.856;2023-06-14T03:29:07;6.22;;;3.30;;
23001;SDS011;11667;51.706;4.856;2023-06-14T03:31:41;7.08;;;3.22;;
23001;SDS011;11667;51.706;4.856;2023-06-14T03:34:09;5.83;;;3.37;;
23001;SDS011;11667;51.706;4.856;2023-06-14T03:36:39;5.28;;;3.47;;
23001;SDS011;11667;51.706;4.856;2023-06-14T03:39:09;6.80;;;3.40;;
23001;SDS011;11667;51.706;4.856;2023-06-14T03:41:38;5.00;;;2.98;;
23001;SDS011;11667;51.706;4.856;2023-06-14T03:44:08;5.80;;;3.10;;
23001;SDS011;11667;51.706;4.856;2023-06-14T03:46:37;7.10;;;3.08;;
23001;SDS011;11667;51.706;4.856;2023-06-14T03:49:07;5.25;;;3.02;;
23001;SDS011;11667;51.706;4.856;2023-06-14T03:51:36;6.03;;;3.40;;
23001;SDS011;11667;51.706;4.856;2023-06-14T03:54:05;4.33;;;3.20;;
23001;SDS011;11667;51.706;4.856;2023-06-14T03:56:37;5.37;;;3.22;;
23001;SDS011;11667;51.706;4.856;2023-06-14T03:59:08;4.92;;;3.15;;
23001;SDS011;11667;51.706;4.856;2023-06-14T04:01:37;6.53;;;3.27;;
23001;SDS011;11667;51.706;4.856;2023-06-14T04:04:09;5.08;;;3.27;;
23001;SDS011;11667;51.706;4.856;2023-06-14T04:06:39;5.95;;;3.45;;
23001;SDS011;11667;51.706;4.856;2023-06-14T04:09:10;6.12;;;3.75;;
23001;SDS011;11667;51.706;4.856;2023-06-14T04:11:41;4.92;;;3.05;;
23001;SDS011;11667;51.706;4.856;2023-06-14T04:14:10;6.95;;;3.17;;
23001;SDS011;11667;51.706;4.856;2023-06-14T04:16:39;5.42;;;3.00;;
23001;SDS011;11667;51.706;4.856;2023-06-14T04:19:09;4.60;;;3.02;;
23001;SDS011;11667;51.706;4.856;2023-06-14T04:21:38;5.12;;;2.98;;
23001;SDS011;11667;51.706;4.856;2023-06-14T04:24:08;7.50;;;3.20;;
23001;SDS011;11667;51.706;4.856;2023-06-14T04:26:43;6.12;;;3.00;;
23001;SDS011;11667;51.706;4.856;2023-06-14T04:29:16;5.65;;;3.00;;
23001;SDS011;11667;51.706;4.856;2023-06-14T04:31:48;5.47;;;3.37;;
23001;SDS011;11667;51.706;4.856;2023-06-14T04:34:20;7.97;;;3.20;;
23001;SDS011;11667;51.706;4.856;2023-06-14T04:36:51;6.03;;;3.10;;
23001;SDS011;11667;51.706;4.856;2023-06-14T04:39:29;8.15;;;2.83;;
23001;SDS011;11667;51.706;4.856;2023-06-14T04:42:00;6.85;;;3.15;;
23001;SDS011;11667;51.706;4.856;2023-06-14T04:44:32;6.50;;;3.27;;
23001;SDS011;11667;51.706;4.856;2023-06-14T04:47:04;6.15;;;3.80;;
23001;SDS011;11667;51.706;4.856;2023-06-14T04:49:35;7.20;;;4.03;;
23001;SDS011;11667;51.706;4.856;2023-06-14T04:52:04;6.70;;;4.05;;
23001;SDS011;11667;51.706;4.856;2023-06-14T04:54:36;8.30;;;4.50;;
23001;SDS011;11667;51.706;4.856;2023-06-14T04:57:08;6.75;;;4.08;;
23001;SDS011;11667;51.706;4.856;2023-06-14T04:59:41;7.17;;;3.72;;
23001;SDS011;11667;51.706;4.856;2023-06-14T05:02:11;8.35;;;4.30;;
23001;SDS011;11667;51.706;4.856;2023-06-14T05:04:42;9.15;;;4.42;;
23001;SDS011;11667;51.706;4.856;2023-06-14T05:07:11;7.67;;;4.58;;
23001;SDS011;11667;51.706;4.856;2023-06-14T05:09:42;9.38;;;4.30;;
23001;SDS011;11667;51.706;4.856;2023-06-14T05:12:12;8.13;;;4.55;;
23001;SDS011;11667;51.706;4.856;2023-06-14T05:14:44;7.58;;;4.10;;
23001;SDS011;11667;51.706;4.856;2023-06-14T05:17:15;10.90;;;4.20;;
23001;SDS011;11667;51.706;4.856;2023-06-14T05:19:45;6.25;;;4.10;;
23001;SDS011;11667;51.706;4.856;2023-06-14T05:22:14;6.10;;;3.67;;
23001;SDS011;11667;51.706;4.856;2023-06-14T05:24:43;5.72;;;3.50;;
23001;SDS011;11667;51.706;4.856;2023-06-14T05:27:14;7.60;;;3.55;;
23001;SDS011;11667;51.706;4.856;2023-06-14T05:29:44;6.33;;;3.62;;
23001;SDS011;11667;51.706;4.856;2023-06-14T05:32:14;6.45;;;3.45;;
23001;SDS011;11667;51.706;4.856;2023-06-14T05:34:43;5.67;;;3.30;;
23001;SDS011;11667;51.706;4.856;2023-06-14T05:37:13;4.30;;;2.95;;
23001;SDS011;11667;51.706;4.856;2023-06-14T05:39:42;7.95;;;3.25;;
23001;SDS011;11667;51.706;4.856;2023-06-14T05:42:12;6.15;;;3.22;;
23001;SDS011;11667;51.706;4.856;2023-06-14T05:44:41;7.22;;;3.10;;
23001;SDS011;11667;51.706;4.856;2023-06-14T05:47:10;5.67;;;3.17;;
23001;SDS011;11667;51.706;4.856;2023-06-14T05:49:40;5.70;;;3.47;;
23001;SDS011;11667;51.706;4.856;2023-06-14T05:52:09;6.83;;;3.40;;
23001;SDS011;11667;51.706;4.856;2023-06-14T05:54:40;6.33;;;3.42;;
23001;SDS011;11667;51.706;4.856;2023-06-14T05:57:10;5.85;;;3.40;;
23001;SDS011;11667;51.706;4.856;2023-06-14T05:59:39;7.60;;;3.87;;
23001;SDS011;11667;51.706;4.856;2023-06-14T06:02:09;11.45;;;4.97;;
23001;SDS011;11667;51.706;4.856;2023-06-14T06:04:38;5.35;;;3.60;;
23001;SDS011;11667;51.706;4.856;2023-06-14T06:07:08;6.33;;;3.55;;
23001;SDS011;11667;51.706;4.856;2023-06-14T06:09:37;7.58;;;3.47;;
23001;SDS011;11667;51.706;4.856;2023-06-14T06:12:07;7.67;;;4.08;;
23001;SDS011;11667;51.706;4.856;2023-06-14T06:14:36;7.95;;;4.00;;
23001;SDS011;11667;51.706;4.856;2023-06-14T06:17:05;6.33;;;3.75;;
23001;SDS011;11667;51.706;4.856;2023-06-14T06:19:35;6.05;;;4.17;;
23001;SDS011;11667;51.706;4.856;2023-06-14T06:22:04;5.58;;;3.50;;
23001;SDS011;11667;51.706;4.856;2023-06-14T06:24:34;7.60;;;3.30;;
23001;SDS011;11667;51.706;4.856;2023-06-14T06:27:03;7.72;;;3.65;;
23001;SDS011;11667;51.706;4.856;2023-06-14T06:29:35;8.78;;;3.92;;
23001;SDS011;11667;51.706;4.856;2023-06-14T06:32:04;5.97;;;3.85;;
23001;SDS011;11667;51.706;4.856;2023-06-14T06:34:34;7.53;;;3.10;;
23001;SDS011;11667;51.706;4.856;2023-06-14T06:37:05;6.55;;;3.92;;
23001;SDS011;11667;51.706;4.856;2023-06-14T06:39:35;7.67;;;4.22;;
23001;SDS011;11667;51.706;4.856;2023-06-14T06:42:05;6.12;;;4.03;;
23001;SDS011;11667;51.706;4.856;2023-06-14T06:44:36;7.58;;;3.30;;
23001;SDS011;11667;51.706;4.856;2023-06-14T06:47:06;23.52;;;3.87;;
23001;SDS011;11667;51.706;4.856;2023-06-14T06:49:37;5.37;;;3.47;;
23001;SDS011;11667;51.706;4.856;2023-06-14T06:52:06;7.50;;;3.20;;
23001;SDS011;11667;51.706;4.856;2023-06-14T06:54:36;5.62;;;3.12;;
23001;SDS011;11667;51.706;4.856;2023-06-14T06:57:05;6.67;;;3.30;;
23001;SDS011;11667;51.706;4.856;2023-06-14T06:59:35;5.75;;;3.55;;
23001;SDS011;11667;51.706;4.856;2023-06-14T07:02:05;6.12;;;3.72;;
23001;SDS011;11667;51.706;4.856;2023-06-14T07:04:35;5.08;;;3.30;;
23001;SDS011;11667;51.706;4.856;2023-06-14T07:07:04;6.20;;;3.27;;
23001;SDS011;11667;51.706;4.856;2023-06-14T07:09:34;4.47;;;3.35;;
23001;SDS011;11667;51.706;4.856;2023-06-14T07:12:03;5.35;;;3.45;;
23001;SDS011;11667;51.706;4.856;2023-06-14T07:14:34;4.75;;;3.12;;
23001;SDS011;11667;51.706;4.856;2023-06-14T07:17:04;5.78;;;3.08;;
23001;SDS011;11667;51.706;4.856;2023-06-14T07:19:35;4.60;;;3.08;;
23001;SDS011;11667;51.706;4.856;2023-06-14T07:22:06;4.70;;;3.20;;
23001;SDS011;11667;51.706;4.856;2023-06-14T07:24:36;6.60;;;3.10;;
23001;SDS011;11667;51.706;4.856;2023-06-14T07:27:05;4.92;;;3.20;;
23001;SDS011;11667;51.706;4.856;2023-06-14T07:29:35;8.45;;;3.47;;
23001;SDS011;11667;51.706;4.856;2023-06-14T07:32:05;6.83;;;3.50;;
23001;SDS011;11667;51.706;4.856;2023-06-14T07:34:35;6.17;;;3.50;;
23001;SDS011;11667;51.706;4.856;2023-06-14T07:37:04;6.20;;;3.60;;
23001;SDS011;11667;51.706;4.856;2023-06-14T07:39:33;4.80;;;3.30;;
23001;SDS011;11667;51.706;4.856;2023-06-14T07:42:03;5.75;;;3.35;;
23001;SDS011;11667;51.706;4.856;2023-06-14T07:44:33;5.62;;;3.47;;
23001;SDS011;11667;51.706;4.856;2023-06-14T07:47:04;6.22;;;3.10;;
23001;SDS011;11667;51.706;4.856;2023-06-14T07:49:33;7.95;;;3.87;;
23001;SDS011;11667;51.706;4.856;2023-06-14T07:52:04;10.70;;;3.60;;
23001;SDS011;11667;51.706;4.856;2023-06-14T07:54:35;6.58;;;3.62;;
23001;SDS011;11667;51.706;4.856;2023-06-14T07:57:04;6.70;;;4.15;;
23001;SDS011;11667;51.706;4.856;2023-06-14T07:59:34;7.50;;;3.87;;
23001;SDS011;11667;51.706;4.856;2023-06-14T08:02:04;5.67;;;3.47;;
23001;SDS011;11667;51.706;4.856;2023-06-14T08:04:34;4.97;;;3.20;;
23001;SDS011;11667;51.706;4.856;2023-06-14T08:07:04;7.03;;;3.87;;
23001;SDS011;11667;51.706;4.856;2023-06-14T08:09:35;5.22;;;3.22;;
23001;SDS011;11667;51.706;4.856;2023-06-14T08:12:06;6.15;;;3.65;;
23001;SDS011;11667;51.706;4.856;2023-06-14T08:14:38;7.67;;;3.47;;
23001;SDS011;11667;51.706;4.856;2023-06-14T08:17:08;7.62;;;3.65;;
23001;SDS011;11667;51.706;4.856;2023-06-14T08:19:37;5.75;;;3.77;;
23001;SDS011;11667;51.706;4.856;2023-06-14T08:22:07;4.08;;;3.12;;
23001;SDS011;11667;51.706;4.856;2023-06-14T08:24:38;4.78;;;3.27;;
23001;SDS011;11667;51.706;4.856;2023-06-14T08:27:08;4.72;;;3.30;;
23001;SDS011;11667;51.706;4.856;2023-06-14T08:29:37;7.35;;;3.55;;
23001;SDS011;11667;51.706;4.856;2023-06-14T08:32:08;5.08;;;3.40;;
23001;SDS011;11667;51.706;4.856;2023-06-14T08:34:38;5.03;;;3.35;;
23001;SDS011;11667;51.706;4.856;2023-06-14T08:37:09;6.28;;;3.65;;
23001;SDS011;11667;51.706;4.856;2023-06-14T08:39:38;5.28;;;3.47;;
23001;SDS011;11667;51.706;4.856;2023-06-14T08:42:07;5.17;;;3.50;;
23001;SDS011;11667;51.706;4.856;2023-06-14T08:47:08;4.87;;;2.80;;
23001;SDS011;11667;51.706;4.856;2023-06-14T08:49:38;4.90;;;2.70;;
23001;SDS011;11667;51.706;4.856;2023-06-14T08:52:10;4.10;;;3.00;;
23001;SDS011;11667;51.706;4.856;2023-06-14T08:54:40;4.92;;;3.17;;
23001;SDS011;11667;51.706;4.856;2023-06-14T08:57:11;4.47;;;2.87;;
23001;SDS011;11667;51.706;4.856;2023-06-14T08:59:45;5.15;;;2.80;;
23001;SDS011;11667;51.706;4.856;2023-06-14T09:02:16;4.53;;;2.77;;
23001;SDS011;11667;51.706;4.856;2023-06-14T09:04:47;5.55;;;2.98;;
23001;SDS011;11667;51.706;4.856;2023-06-14T09:09:48;6.55;;;2.75;;
23001;SDS011;11667;51.706;4.856;2023-06-14T09:12:19;3.80;;;2.70;;
23001;SDS011;11667;51.706;4.856;2023-06-14T09:14:49;5.03;;;2.50;;
23001;SDS011;11667;51.706;4.856;2023-06-14T09:17:19;4.12;;;2.20;;
23001;SDS011;11667;51.706;4.856;2023-06-14T09:19:48;4.15;;;2.60;;
23001;SDS011;11667;51.706;4.856;2023-06-14T09:22:17;5.95;;;2.67;;
23001;SDS011;11667;51.706;4.856;2023-06-14T09:24:47;3.65;;;2.40;;
23001;SDS011;11667;51.706;4.856;2023-06-14T09:27:17;4.75;;;2.47;;
23001;SDS011;11667;51.706;4.856;2023-06-14T09:29:46;5.08;;;2.80;;
23001;SDS011;11667;51.706;4.856;2023-06-14T09:32:15;4.20;;;3.10;;
23001;SDS011;11667;51.706;4.856;2023-06-14T09:34:45;5.40;;;2.50;;
23001;SDS011;11667;51.706;4.856;2023-06-14T09:37:30;5.15;;;2.83;;
23001;SDS011;11667;51.706;4.856;2023-06-14T09:40:00;3.62;;;2.47;;
23001;SDS011;11667;51.706;4.856;2023-06-14T09:42:30;3.87;;;2.33;;
23001;SDS011;11667;51.706;4.856;2023-06-14T09:45:01;3.15;;;2.67;;
23001;SDS011;11667;51.706;4.856;2023-06-14T09:47:32;6.12;;;3.25;;
23001;SDS011;11667;51.706;4.856;2023-06-14T09:50:01;4.33;;;2.70;;
23001;SDS011;11667;51.706;4.856;2023-06-14T09:52:31;3.33;;;2.55;;
23001;SDS011;11667;51.706;4.856;2023-06-14T09:55:00;4.53;;;2.50;;
23001;SDS011;11667;51.706;4.856;2023-06-14T09:57:33;4.37;;;2.47;;
23001;SDS011;11667;51.706;4.856;2023-06-14T10:00:03;6.12;;;2.10;;
23001;SDS011;11667;51.706;4.856;2023-06-14T10:02:37;4.25;;;2.00;;
23001;SDS011;11667;51.706;4.856;2023-06-14T10:05:11;3.22;;;1.87;;
23001;SDS011;11667;51.706;4.856;2023-06-14T10:10:28;2.85;;;1.90;;
23001;SDS011;11667;51.706;4.856;2023-06-14T10:12:58;6.65;;;2.10;;
23001;SDS011;11667;51.706;4.856;2023-06-14T10:15:30;2.90;;;1.80;;
23001;SDS011;11667;51.706;4.856;2023-06-14T10:21:00;2.85;;;1.67;;
23001;SDS011;11667;51.706;4.856;2023-06-14T10:23:42;3.70;;;1.70;;
23001;SDS011;11667;51.706;4.856;2023-06-14T10:26:19;1.80;;;1.40;;
23001;SDS011;11667;51.706;4.856;2023-06-14T10:29:00;2.90;;;1.62;;
23001;SDS011;11667;51.706;4.856;2023-06-14T10:31:40;2.15;;;1.12;;
23001;SDS011;11667;51.706;4.856;2023-06-14T10:34:30;2.52;;;1.82;;
23001;SDS011;11667;51.706;4.856;2023-06-14T10:37:06;2.00;;;1.50;;
23001;SDS011;11667;51.706;4.856;2023-06-14T10:39:41;1.62;;;1.27;;
23001;SDS011;11667;51.706;4.856;2023-06-14T10:42:13;3.05;;;1.40;;
23001;SDS011;11667;51.706;4.856;2023-06-14T10:44:43;1.40;;;1.30;;
23001;SDS011;11667;51.706;4.856;2023-06-14T10:47:29;1.85;;;1.22;;
23001;SDS011;11667;51.706;4.856;2023-06-14T10:50:03;1.52;;;1.07;;
23001;SDS011;11667;51.706;4.856;2023-06-14T10:52:41;1.82;;;1.32;;
23001;SDS011;11667;51.706;4.856;2023-06-14T10:55:16;3.45;;;1.27;;
23001;SDS011;11667;51.706;4.856;2023-06-14T10:57:48;1.70;;;1.35;;
23001;SDS011;11667;51.706;4.856;2023-06-14T11:00:24;1.45;;;1.10;;
23001;SDS011;11667;51.706;4.856;2023-06-14T11:05:51;3.27;;;1.20;;
23001;SDS011;11667;51.706;4.856;2023-06-14T11:11:21;1.52;;;1.10;;
23001;SDS011;11667;51.706;4.856;2023-06-14T11:13:51;2.02;;;1.20;;
23001;SDS011;11667;51.706;4.856;2023-06-14T11:16:21;1.42;;;1.17;;
23001;SDS011;11667;51.706;4.856;2023-06-14T11:18:53;2.65;;;1.30;;
23001;SDS011;11667;51.706;4.856;2023-06-14T11:21:23;3.08;;;1.42;;
23001;SDS011;11667;51.706;4.856;2023-06-14T11:23:54;1.95;;;1.30;;
23001;SDS011;11667;51.706;4.856;2023-06-14T11:26:24;1.37;;;1.00;;
23001;SDS011;11667;51.706;4.856;2023-06-14T11:33:58;1.30;;;1.00;;
23001;SDS011;11667;51.706;4.856;2023-06-14T11:36:35;1.50;;;1.35;;
23001;SDS011;11667;51.706;4.856;2023-06-14T11:39:04;1.98;;;1.30;;
23001;SDS011;11667;51.706;4.856;2023-06-14T11:41:35;1.82;;;1.27;;
23001;SDS011;11667;51.706;4.856;2023-06-14T11:44:13;2.33;;;1.20;;
23001;SDS011;11667;51.706;4.856;2023-06-14T11:46:43;2.45;;;1.60;;
23001;SDS011;11667;51.706;4.856;2023-06-14T11:49:13;1.82;;;1.15;;
23001;SDS011;11667;51.706;4.856;2023-06-14T11:51:42;2.77;;;1.32;;
23001;SDS011;11667;51.706;4.856;2023-06-14T11:54:12;2.40;;;1.45;;
23001;SDS011;11667;51.706;4.856;2023-06-14T11:56:41;2.62;;;1.40;;
23001;SDS011;11667;51.706;4.856;2023-06-14T11:59:11;2.00;;;1.35;;
23001;SDS011;11667;51.706;4.856;2023-06-14T12:01:42;2.23;;;1.40;;
23001;SDS011;11667;51.706;4.856;2023-06-14T12:04:12;2.52;;;1.40;;
23001;SDS011;11667;51.706;4.856;2023-06-14T12:06:42;1.52;;;1.30;;
23001;SDS011;11667;51.706;4.856;2023-06-14T12:09:11;3.02;;;1.52;;
23001;SDS011;11667;51.706;4.856;2023-06-14T12:11:42;2.40;;;1.47;;
23001;SDS011;11667;51.706;4.856;2023-06-14T12:14:11;1.87;;;1.20;;
23001;SDS011;11667;51.706;4.856;2023-06-14T12:16:41;3.52;;;1.50;;
23001;SDS011;11667;51.706;4.856;2023-06-14T12:19:14;1.45;;;1.20;;
23001;SDS011;11667;51.706;4.856;2023-06-14T12:21:48;1.60;;;1.10;;
23001;SDS011;11667;51.706;4.856;2023-06-14T12:24:18;3.90;;;1.60;;
23001;SDS011;11667;51.706;4.856;2023-06-14T12:26:48;3.45;;;1.40;;
23001;SDS011;11667;51.706;4.856;2023-06-14T12:29:18;2.55;;;1.22;;
23001;SDS011;11667;51.706;4.856;2023-06-14T12:31:48;2.20;;;1.20;;
23001;SDS011;11667;51.706;4.856;2023-06-14T12:34:18;3.60;;;1.55;;
23001;SDS011;11667;51.706;4.856;2023-06-14T12:36:47;1.42;;;1.32;;
23001;SDS011;11667;51.706;4.856;2023-06-14T12:39:16;1.60;;;1.30;;
23001;SDS011;11667;51.706;4.856;2023-06-14T12:41:46;1.40;;;1.20;;
23001;SDS011;11667;51.706;4.856;2023-06-14T12:44:16;2.20;;;1.47;;
23001;SDS011;11667;51.706;4.856;2023-06-14T12:46:45;2.52;;;1.35;;
23001;SDS011;11667;51.706;4.856;2023-06-14T12:49:15;3.05;;;1.80;;
23001;SDS011;11667;51.706;4.856;2023-06-14T12:51:44;2.30;;;1.30;;
23001;SDS011;11667;51.706;4.856;2023-06-14T12:54:13;1.98;;;1.40;;
23001;SDS011;11667;51.706;4.856;2023-06-14T12:56:44;1.62;;;1.30;;
23001;SDS011;11667;51.706;4.856;2023-06-14T12:59:14;1.90;;;1.55;;
23001;SDS011;11667;51.706;4.856;2023-06-14T13:01:43;1.77;;;1.42;;
23001;SDS011;11667;51.706;4.856;2023-06-14T13:04:12;2.95;;;1.50;;
23001;SDS011;11667;51.706;4.856;2023-06-14T13:06:42;1.62;;;1.40;;
23001;SDS011;11667;51.706;4.856;2023-06-14T13:09:11;1.20;;;1.10;;
23001;SDS011;11667;51.706;4.856;2023-06-14T13:11:41;3.47;;;1.30;;
23001;SDS011;11667;51.706;4.856;2023-06-14T13:14:12;1.87;;;1.40;;
23001;SDS011;11667;51.706;4.856;2023-06-14T13:19:13;1.82;;;1.40;;
23001;SDS011;11667;51.706;4.856;2023-06-14T13:21:42;1.67;;;1.30;;
23001;SDS011;11667;51.706;4.856;2023-06-14T13:24:11;2.35;;;1.62;;
23001;SDS011;11667;51.706;4.856;2023-06-14T13:26:41;2.95;;;1.30;;
23001;SDS011;11667;51.706;4.856;2023-06-14T13:29:11;1.95;;;1.65;;
23001;SDS011;11667;51.706;4.856;2023-06-14T13:31:40;2.98;;;1.70;;
23001;SDS011;11667;51.706;4.856;2023-06-14T13:34:10;3.35;;;1.70;;
23001;SDS011;11667;51.706;4.856;2023-06-14T13:36:39;1.92;;;1.50;;
23001;SDS011;11667;51.706;4.856;2023-06-14T13:39:09;2.30;;;1.30;;
23001;SDS011;11667;51.706;4.856;2023-06-14T13:41:38;4.72;;;1.77;;
23001;SDS011;11667;51.706;4.856;2023-06-14T13:44:08;2.47;;;1.60;;
23001;SDS011;11667;51.706;4.856;2023-06-14T13:46:40;2.12;;;1.60;;
23001;SDS011;11667;51.706;4.856;2023-06-14T13:49:10;2.72;;;1.42;;
23001;SDS011;11667;51.706;4.856;2023-06-14T13:51:41;1.98;;;1.42;;
23001;SDS011;11667;51.706;4.856;2023-06-14T13:54:13;2.35;;;1.45;;
23001;SDS011;11667;51.706;4.856;2023-06-14T13:56:43;4.40;;;1.65;;
23001;SDS011;11667;51.706;4.856;2023-06-14T13:59:12;1.77;;;1.50;;
23001;SDS011;11667;51.706;4.856;2023-06-14T14:01:41;2.92;;;1.87;;
23001;SDS011;11667;51.706;4.856;2023-06-14T14:04:11;2.77;;;1.65;;
23001;SDS011;11667;51.706;4.856;2023-06-14T14:06:41;2.75;;;1.62;;
23001;SDS011;11667;51.706;4.856;2023-06-14T14:09:10;6.53;;;1.77;;
23001;SDS011;11667;51.706;4.856;2023-06-14T14:11:40;2.75;;;1.57;;
23001;SDS011;11667;51.706;4.856;2023-06-14T14:14:10;4.17;;;1.45;;
23001;SDS011;11667;51.706;4.856;2023-06-14T14:16:39;1.40;;;1.20;;
23001;SDS011;11667;51.706;4.856;2023-06-14T14:19:09;3.22;;;1.32;;
23001;SDS011;11667;51.706;4.856;2023-06-14T14:21:38;3.92;;;1.80;;
23001;SDS011;11667;51.706;4.856;2023-06-14T14:24:08;2.30;;;1.50;;
23001;SDS011;11667;51.706;4.856;2023-06-14T14:26:37;2.35;;;1.55;;
23001;SDS011;11667;51.706;4.856;2023-06-14T14:29:07;1.90;;;1.50;;
23001;SDS011;11667;51.706;4.856;2023-06-14T14:31:39;1.87;;;1.50;;
23001;SDS011;11667;51.706;4.856;2023-06-14T14:34:08;2.22;;;1.40;;
23001;SDS011;11667;51.706;4.856;2023-06-14T14:36:37;2.00;;;1.45;;
23001;SDS011;11667;51.706;4.856;2023-06-14T14:39:09;2.20;;;1.57;;
23001;SDS011;11667;51.706;4.856;2023-06-14T14:41:40;2.08;;;1.45;;
23001;SDS011;11667;51.706;4.856;2023-06-14T14:44:09;2.52;;;1.50;;
23001;SDS011;11667;51.706;4.856;2023-06-14T14:46:38;1.72;;;1.32;;
23001;SDS011;11667;51.706;4.856;2023-06-14T14:49:08;2.62;;;1.35;;
23001;SDS011;11667;51.706;4.856;2023-06-14T14:51:38;3.42;;;1.60;;
23001;SDS011;11667;51.706;4.856;2023-06-14T14:54:07;3.83;;;1.50;;
23001;SDS011;11667;51.706;4.856;2023-06-14T14:56:37;3.90;;;1.50;;
23001;SDS011;11667;51.706;4.856;2023-06-14T14:59:07;2.33;;;1.70;;
23001;SDS011;11667;51.706;4.856;2023-06-14T15:01:36;3.75;;;1.82;;
23001;SDS011;11667;51.706;4.856;2023-06-14T15:04:05;2.90;;;1.45;;
23001;SDS011;11667;51.706;4.856;2023-06-14T15:06:35;2.85;;;1.85;;
23001;SDS011;11667;51.706;4.856;2023-06-14T15:09:07;1.65;;;1.32;;
23001;SDS011;11667;51.706;4.856;2023-06-14T15:11:36;3.25;;;1.35;;
23001;SDS011;11667;51.706;4.856;2023-06-14T15:14:05;2.92;;;1.90;;
23001;SDS011;11667;51.706;4.856;2023-06-14T15:16:35;2.98;;;1.60;;
23001;SDS011;11667;51.706;4.856;2023-06-14T15:19:05;2.92;;;1.40;;
23001;SDS011;11667;51.706;4.856;2023-06-14T15:21:35;3.92;;;1.77;;
23001;SDS011;11667;51.706;4.856;2023-06-14T15:24:04;2.12;;;1.17;;
23001;SDS011;11667;51.706;4.856;2023-06-14T15:26:34;3.72;;;1.60;;
23001;SDS011;11667;51.706;4.856;2023-06-14T15:29:03;3.77;;;1.40;;
23001;SDS011;11667;51.706;4.856;2023-06-14T15:31:33;2.42;;;1.30;;
23001;SDS011;11667;51.706;4.856;2023-06-14T15:34:02;1.70;;;1.30;;